Terminal Aerodrome Forecast
Issued by NWS

Current Version | Previous Version | Graphics & Text | Print | Product List | Glossary On
Versions: 1 2 3 4 5 6 7 8 9 10 11 12 13 14 15 16 17 18 19
000
FTUS41 KPBZ 161500 AAB
TAFHLG
TAF AMD
KHLG 161527Z 1615/1712 33006KT P6SM SCT020
      TEMPO 1615/1617 BKN020
     FM161800 33005KT P6SM BKN050
     FM162200 32007KT P6SM SKC
     FM171000 00000KT 2SM BR FEW250=

USA.gov is the U.S. government's official web portal to all federal, state and local government web resources and services.